Time;durP1;ratioP1;P1;durP2;ratioP2;P2;SDS_P1;SDS_P2;PMS_P1;PMS_P2;Temp;Humidity;BMP_temperature;BMP_pressure;BME280_temperature;BME280_humidity;BME280_pressure;Samples;Min_cycle;Max_cycle;Signal;HPM_P1;HPM_P2
2022/05/30 00:00:29;;;;;;;2.13;1.93;;;11.00;99.90;;;;;;5012626;28;20236;-59
2022/05/30 00:02:55;;;;;;;2.10;2.00;;;10.90;99.90;;;;;;5012604;28;20267;-59
2022/05/30 00:05:23;;;;;;;2.20;2.00;;;10.90;99.90;;;;;;5012077;28;20612;-57
2022/05/30 00:07:49;;;;;;;2.30;2.10;;;10.90;99.90;;;;;;5012195;28;20185;-59
2022/05/30 00:10:15;;;;;;;3.10;2.20;;;10.90;99.90;;;;;;5012056;28;20716;-59
2022/05/30 00:12:41;;;;;;;3.17;1.97;;;10.80;99.90;;;;;;5012255;28;20259;-57
2022/05/30 00:15:10;;;;;;;2.50;2.10;;;10.80;99.90;;;;;;5011745;28;20251;-59
2022/05/30 00:17:35;;;;;;;4.00;2.37;;;10.80;99.90;;;;;;5012225;28;20169;-58
2022/05/30 00:20:01;;;;;;;2.30;2.10;;;10.80;99.90;;;;;;5012048;28;20200;-57
2022/05/30 00:22:26;;;;;;;2.27;2.07;;;10.80;99.90;;;;;;5012057;28;20180;-58
2022/05/30 00:24:52;;;;;;;2.87;2.10;;;10.80;99.90;;;;;;5011690;28;20255;-58
2022/05/30 00:27:18;;;;;;;2.30;2.10;;;10.80;99.90;;;;;;5011126;28;20326;-59
2022/05/30 00:29:44;;;;;;;3.17;2.30;;;10.80;99.90;;;;;;5011960;28;20330;-57
2022/05/30 00:32:10;;;;;;;2.63;2.00;;;10.80;99.90;;;;;;5012110;28;20189;-59
2022/05/30 00:34:36;;;;;;;2.67;2.40;;;10.80;99.90;;;;;;5011625;28;20168;-59
2022/05/30 00:37:03;;;;;;;3.90;2.27;;;10.80;99.90;;;;;;5011806;28;20681;-58
2022/05/30 00:39:29;;;;;;;2.50;2.30;;;10.80;99.90;;;;;;5011582;28;20200;-59
2022/05/30 00:42:13;;;;;;;3.93;2.37;;;10.80;99.90;;;;;;5011676;28;20165;-59
2022/05/30 00:44:41;;;;;;;2.40;2.20;;;10.70;99.90;;;;;;5011498;28;20174;-59
2022/05/30 00:47:06;;;;;;;2.50;2.30;;;10.60;99.90;;;;;;5011731;28;20164;-53
2022/05/30 00:49:35;;;;;;;4.10;2.90;;;10.60;99.90;;;;;;5011493;28;20283;-59
2022/05/30 00:52:05;;;;;;;2.93;2.73;;;10.50;99.90;;;;;;5011672;28;20199;-59
2022/05/30 00:54:40;;;;;;;3.37;2.67;;;10.50;99.90;;;;;;5011198;28;20164;-59
2022/05/30 00:57:20;;;;;;;3.37;2.40;;;10.50;99.90;;;;;;5011421;28;20227;-60
2022/05/30 01:00:07;;;;;;;2.30;2.10;;;10.50;99.90;;;;;;5011790;28;20192;-59
2022/05/30 01:02:35;;;;;;;2.40;2.20;;;11.00;99.90;;;;;;5011290;28;20657;-60
2022/05/30 01:07:47;;;;;;;2.40;2.20;;;10.60;99.90;;;;;;5011704;28;20179;-57
2022/05/30 01:10:17;;;;;;;2.23;2.03;;;10.60;99.90;;;;;;5011225;28;20212;-60
2022/05/30 01:12:52;;;;;;;2.17;2.00;;;10.60;99.90;;;;;;5011285;28;20553;-57
2022/05/30 01:15:19;;;;;;;2.60;2.40;;;10.50;99.90;;;;;;5011101;28;20530;-60
2022/05/30 01:18:09;;;;;;;1.97;1.77;;;10.60;99.90;;;;;;5011535;28;20255;-59
2022/05/30 01:20:44;;;;;;;3.90;2.40;;;10.60;99.90;;;;;;5011280;28;20188;-59
2022/05/30 01:23:24;;;;;;;2.50;2.30;;;10.60;99.90;;;;;;5011280;28;20182;-59
2022/05/30 01:26:14;;;;;;;3.03;2.43;;;10.60;99.90;;;;;;5011323;28;20227;-58
2022/05/30 01:28:55;;;;;;;2.37;2.17;;;10.60;99.90;;;;;;5011159;28;20169;-59
2022/05/30 01:31:21;;;;;;;2.93;2.40;;;10.60;99.90;;;;;;5011135;28;20207;-59
2022/05/30 01:33:47;;;;;;;1.90;1.80;;;10.60;99.90;;;;;;5011024;28;20822;-57
2022/05/30 01:36:12;;;;;;;3.83;2.17;;;10.60;99.90;;;;;;5011040;28;20235;-59
2022/05/30 01:38:38;;;;;;;2.40;2.20;;;10.60;99.90;;;;;;5011076;28;20654;-60
2022/05/30 01:41:04;;;;;;;2.50;2.30;;;10.60;99.90;;;;;;5011145;28;20693;-59
2022/05/30 01:43:30;;;;;;;2.27;2.07;;;10.60;99.90;;;;;;5010851;28;20414;-61
2022/05/30 01:45:55;;;;;;;2.50;2.27;;;10.60;99.90;;;;;;5011106;28;20196;-59
2022/05/30 01:48:21;;;;;;;2.40;2.20;;;10.60;99.90;;;;;;5011056;28;20657;-59
2022/05/30 01:50:47;;;;;;;2.50;2.30;;;10.50;99.90;;;;;;5011364;28;20629;-51
2022/05/30 01:53:13;;;;;;;2.30;2.10;;;10.50;99.90;;;;;;5010877;28;20202;-57
2022/05/30 01:55:39;;;;;;;2.60;2.40;;;10.50;99.90;;;;;;5011022;28;20211;-55
2022/05/30 01:58:05;;;;;;;2.63;2.43;;;10.50;99.90;;;;;;5010976;28;20172;-57
2022/05/30 02:00:31;;;;;;;3.17;2.87;;;10.40;99.90;;;;;;5010758;28;20503;-54
2022/05/30 02:02:57;;;;;;;2.33;2.23;;;10.40;99.90;;;;;;5011008;28;20173;-57
2022/05/30 02:05:23;;;;;;;2.70;2.50;;;10.40;99.90;;;;;;5011733;28;20711;-59
2022/05/30 02:07:48;;;;;;;3.03;2.80;;;10.30;99.90;;;;;;5014532;28;20179;-57
2022/05/30 02:10:14;;;;;;;3.03;2.50;;;10.30;99.90;;;;;;5014405;28;20212;-59
2022/05/30 02:12:39;;;;;;;3.07;2.23;;;10.30;99.90;;;;;;5014513;28;20181;-57
2022/05/30 02:15:05;;;;;;;3.60;2.80;;;10.90;99.90;;;;;;5014182;28;20259;-58
2022/05/30 02:17:35;;;;;;;2.97;2.70;;;10.20;99.90;;;;;;5014370;28;20215;-55
2022/05/30 02:20:00;;;;;;;2.60;2.40;;;10.20;99.90;;;;;;5014387;28;20197;-53
2022/05/30 02:22:29;;;;;;;2.63;2.23;;;10.10;99.90;;;;;;5014379;28;20279;-57
2022/05/30 02:24:55;;;;;;;2.87;2.57;;;10.10;99.90;;;;;;5014114;28;20642;-57
2022/05/30 02:27:21;;;;;;;2.43;2.23;;;10.00;99.90;;;;;;5014316;28;20179;-58
2022/05/30 02:29:46;;;;;;;3.13;2.70;;;10.00;99.90;;;;;;5013943;28;20200;-52
2022/05/30 02:32:12;;;;;;;3.33;2.50;;;10.00;99.90;;;;;;5014133;28;20173;-57
2022/05/30 02:37:22;;;;;;;2.80;2.60;;;10.00;99.90;;;;;;5013975;28;20262;-57
2022/05/30 02:39:47;;;;;;;2.63;2.43;;;9.90;99.90;;;;;;5014128;28;20605;-56
2022/05/30 02:42:13;;;;;;;2.73;2.53;;;9.90;99.90;;;;;;5013963;28;20191;-57
2022/05/30 02:44:39;;;;;;;2.90;2.60;;;9.90;99.90;;;;;;5013428;28;20699;-56
2022/05/30 02:47:05;;;;;;;3.77;2.67;;;9.80;99.90;;;;;;5013739;28;20214;-59
2022/05/30 02:49:31;;;;;;;2.87;2.67;;;9.80;99.90;;;;;;5013795;28;20287;-59
2022/05/30 02:51:57;;;;;;;2.67;2.47;;;9.90;99.90;;;;;;5013902;28;20196;-56
2022/05/30 02:54:24;;;;;;;2.93;2.63;;;9.80;99.90;;;;;;5013657;28;20211;-56
2022/05/30 02:56:57;;;;;;;3.20;2.90;;;9.80;99.90;;;;;;5013567;28;20195;-59
2022/05/30 02:59:24;;;;;;;2.70;2.50;;;9.70;99.90;;;;;;5013707;28;20156;-58
2022/05/30 03:01:50;;;;;;;2.60;2.40;;;9.70;99.90;;;;;;5013702;28;20259;-58
2022/05/30 03:04:16;;;;;;;3.90;2.80;;;9.70;99.90;;;;;;5013411;28;20239;-58
2022/05/30 03:06:43;;;;;;;3.03;2.60;;;9.60;99.90;;;;;;5013472;28;20285;-58
2022/05/30 03:09:10;;;;;;;3.20;2.90;;;9.60;99.90;;;;;;5013507;28;20200;-58
2022/05/30 03:11:36;;;;;;;3.27;2.97;;;9.60;99.90;;;;;;5013412;28;20188;-58
2022/05/30 03:14:02;;;;;;;2.80;2.60;;;9.60;99.90;;;;;;5013156;28;20196;-59
2022/05/30 03:16:28;;;;;;;2.90;2.70;;;9.60;99.90;;;;;;5013235;28;20208;-58
2022/05/30 03:18:54;;;;;;;4.73;2.90;;;9.50;99.90;;;;;;5013293;28;20168;-58
2022/05/30 03:21:20;;;;;;;2.70;2.50;;;9.60;99.90;;;;;;5013159;28;20204;-53
2022/05/30 03:23:45;;;;;;;2.90;2.70;;;9.60;99.90;;;;;;5012915;28;20180;-58
2022/05/30 03:26:12;;;;;;;3.40;2.70;;;9.50;99.90;;;;;;5013025;28;20184;-56
2022/05/30 03:28:38;;;;;;;3.07;2.87;;;9.50;99.90;;;;;;5013087;28;20697;-57
2022/05/30 03:31:04;;;;;;;3.13;2.60;;;9.50;99.90;;;;;;5012969;28;20247;-58
2022/05/30 03:33:30;;;;;;;2.70;2.50;;;9.50;99.90;;;;;;5012753;28;20176;-59
2022/05/30 03:35:56;;;;;;;3.07;2.77;;;9.50;99.90;;;;;;5012900;28;20246;-56
2022/05/30 03:38:22;;;;;;;3.07;2.77;;;9.50;99.90;;;;;;5012769;28;20173;-59
2022/05/30 03:40:47;;;;;;;2.83;2.40;;;9.40;99.90;;;;;;5027990;28;20311;-57
2022/05/30 03:43:13;;;;;;;2.63;2.43;;;9.30;99.90;;;;;;5012883;28;20526;-57
2022/05/30 03:45:40;;;;;;;2.70;2.50;;;9.20;99.90;;;;;;5012591;28;20172;-58
2022/05/30 03:48:08;;;;;;;2.70;2.50;;;9.20;99.90;;;;;;5012694;28;20180;-57
2022/05/30 03:50:34;;;;;;;3.83;3.50;;;9.20;99.90;;;;;;5012630;28;20251;-59
2022/05/30 03:53:05;;;;;;;3.87;3.53;;;9.30;99.90;;;;;;5012573;28;20271;-59
2022/05/30 03:55:37;;;;;;;4.20;3.80;;;9.30;99.90;;;;;;5012330;28;20222;-59
2022/05/30 03:58:04;;;;;;;16.10;4.13;;;9.30;99.90;;;;;;5012413;28;20180;-59
2022/05/30 04:00:31;;;;;;;4.10;3.70;;;9.40;99.90;;;;;;5012518;28;20271;-55
2022/05/30 04:02:58;;;;;;;66.93;6.60;;;9.30;99.90;;;;;;5012478;28;20168;-59
2022/05/30 04:05:24;;;;;;;4.43;4.03;;;9.20;99.90;;;;;;5012087;28;20181;-57
2022/05/30 04:07:49;;;;;;;4.27;3.87;;;9.20;99.90;;;;;;5012268;28;20176;-59
2022/05/30 04:12:44;;;;;;;13.27;4.93;;;9.30;99.90;;;;;;5047817;23;20285;-51
2022/05/30 04:15:18;;;;;;;5.50;5.00;;;9.30;99.90;;;;;;5030163;28;20173;-49
2022/05/30 04:17:43;;;;;;;5.00;4.60;;;9.20;99.90;;;;;;5031652;28;20232;-50
2022/05/30 04:20:09;;;;;;;14.57;5.57;;;9.10;99.90;;;;;;5013540;28;20242;-49
2022/05/30 04:22:35;;;;;;;5.50;5.00;;;9.20;99.90;;;;;;5031554;28;20196;-54
2022/05/30 04:25:01;;;;;;;107.93;9.40;;;9.30;99.90;;;;;;5031536;28;20167;-54
2022/05/30 04:27:27;;;;;;;94.30;9.93;;;9.40;99.90;;;;;;5031555;28;20218;-53
2022/05/30 04:29:52;;;;;;;6.03;5.53;;;9.50;99.90;;;;;;5012952;28;20172;-53
2022/05/30 04:32:18;;;;;;;19.53;7.50;;;9.50;99.90;;;;;;5011976;28;20262;-49
2022/05/30 04:34:45;;;;;;;149.33;13.60;;;9.50;99.90;;;;;;5011569;28;20516;-51
2022/05/30 04:37:10;;;;;;;7.70;6.57;;;9.50;99.90;;;;;;5011994;28;20230;-49
2022/05/30 04:39:36;;;;;;;20.53;8.37;;;9.50;99.90;;;;;;5011767;28;20177;-53
2022/05/30 04:42:03;;;;;;;10.77;7.03;;;9.50;99.90;;;;;;5009160;28;20254;-56
2022/05/30 04:44:29;;;;;;;55.80;9.53;;;9.60;99.90;;;;;;5001338;28;20204;-56
2022/05/30 04:46:56;;;;;;;7.87;6.63;;;9.60;99.90;;;;;;5008138;28;20204;-52
2022/05/30 04:49:23;;;;;;;25.67;8.80;;;9.60;99.90;;;;;;5008352;28;20271;-56
2022/05/30 04:51:50;;;;;;;48.60;9.47;;;9.60;99.90;;;;;;5003601;28;20693;-55
2022/05/30 04:54:16;;;;;;;6.90;6.10;;;9.60;99.90;;;;;;5001594;28;20248;-55
2022/05/30 04:56:42;;;;;;;10.83;7.40;;;9.70;99.90;;;;;;5006031;28;20271;-51
2022/05/30 04:59:07;;;;;;;12.10;7.60;;;9.70;99.90;;;;;;4974559;28;20600;-52
2022/05/30 05:01:34;;;;;;;10.13;7.03;;;9.80;99.90;;;;;;4975592;28;20328;-54
2022/05/30 05:04:00;;;;;;;6.33;5.73;;;9.70;99.90;;;;;;5001451;28;20555;-51
2022/05/30 05:06:25;;;;;;;6.23;5.63;;;9.80;99.90;;;;;;5007024;28;20192;-56
2022/05/30 05:08:57;;;;;;;6.30;5.70;;;9.90;99.90;;;;;;5001957;28;20179;-57
2022/05/30 05:11:26;;;;;;;7.00;6.30;;;10.10;99.90;;;;;;5011286;28;20212;-50
2022/05/30 05:13:51;;;;;;;6.20;5.60;;;10.40;99.90;;;;;;4993292;28;20177;-52
2022/05/30 05:16:19;;;;;;;6.20;5.60;;;10.50;99.90;;;;;;4991897;28;20738;-51
2022/05/30 05:18:46;;;;;;;6.00;5.50;;;10.70;99.90;;;;;;5007949;28;20238;-53
2022/05/30 05:21:21;;;;;;;6.20;5.60;;;10.80;99.90;;;;;;5010658;28;20196;-51
2022/05/30 05:23:47;;;;;;;5.70;5.10;;;10.90;99.90;;;;;;5011014;28;20267;-54
2022/05/30 05:26:13;;;;;;;5.57;5.07;;;11.00;99.90;;;;;;5011283;28;20196;-54
2022/05/30 05:28:39;;;;;;;6.20;5.60;;;11.00;99.90;;;;;;5011399;28;20251;-52
2022/05/30 05:31:09;;;;;;;5.37;4.87;;;11.10;99.90;;;;;;5011212;28;20221;-57
2022/05/30 05:33:35;;;;;;;5.30;4.80;;;11.20;99.90;;;;;;5011337;28;20192;-54
2022/05/30 05:36:02;;;;;;;4.70;4.30;;;11.30;99.90;;;;;;5011273;28;20538;-57
2022/05/30 05:38:27;;;;;;;6.27;5.10;;;11.40;99.90;;;;;;5011392;28;20208;-54
2022/05/30 05:40:53;;;;;;;4.93;4.53;;;11.50;99.90;;;;;;5013125;28;20740;-55
2022/05/30 05:43:19;;;;;;;6.17;4.93;;;11.50;99.90;;;;;;5015288;28;20169;-52
2022/05/30 05:45:46;;;;;;;5.83;5.33;;;11.30;99.90;;;;;;5014940;28;20249;-53
2022/05/30 05:48:12;;;;;;;5.87;5.27;;;11.20;99.90;;;;;;5015367;28;20245;-55
2022/05/30 05:50:39;;;;;;;5.33;4.83;;;11.10;99.90;;;;;;5015062;28;20311;-49
2022/05/30 05:53:05;;;;;;;5.33;4.93;;;11.10;99.90;;;;;;5015256;28;20199;-51
2022/05/30 05:55:31;;;;;;;5.40;4.90;;;11.30;99.90;;;;;;5015060;28;20179;-49
2022/05/30 05:57:57;;;;;;;6.40;5.57;;;11.50;99.90;;;;;;4997632;28;20519;-49
2022/05/30 06:00:23;;;;;;;7.20;5.50;;;11.60;99.90;;;;;;5014992;28;20173;-50
2022/05/30 06:02:48;;;;;;;5.50;5.00;;;11.60;99.90;;;;;;5014876;28;20172;-51
2022/05/30 06:05:14;;;;;;;11.03;5.50;;;11.70;99.90;;;;;;5014893;28;20605;-49
2022/05/30 06:07:42;;;;;;;5.80;5.30;;;11.90;99.90;;;;;;5014890;28;20200;-52
2022/05/30 06:10:11;;;;;;;6.10;5.50;;;11.80;99.90;;;;;;5014841;28;20180;-54
2022/05/30 06:12:42;;;;;;;5.67;5.13;;;11.70;99.90;;;;;;5014654;28;20215;-52
2022/05/30 06:15:13;;;;;;;5.33;4.83;;;11.50;99.90;;;;;;5014707;28;20217;-51
2022/05/30 06:17:40;;;;;;;5.57;5.07;;;11.50;99.90;;;;;;5014541;28;20161;-51
2022/05/30 06:20:07;;;;;;;5.73;5.23;;;11.80;99.90;;;;;;5014619;28;20540;-51
2022/05/30 06:22:33;;;;;;;5.57;5.07;;;12.20;99.90;;;;;;5014360;28;20677;-50
2022/05/30 06:24:58;;;;;;;5.27;4.77;;;12.50;99.90;;;;;;5013415;28;20172;-48
2022/05/30 06:27:24;;;;;;;4.80;4.40;;;12.80;99.90;;;;;;5009338;28;20204;-53
2022/05/30 06:29:51;;;;;;;5.30;4.80;;;12.70;99.90;;;;;;5014405;28;20177;-47
2022/05/30 06:32:17;;;;;;;5.57;5.07;;;12.60;99.90;;;;;;5014238;28;20193;-48
2022/05/30 06:34:42;;;;;;;5.27;4.77;;;12.60;99.90;;;;;;5014223;28;20260;-48
2022/05/30 06:37:10;;;;;;;5.60;5.10;;;12.70;99.90;;;;;;5014558;28;20177;-47
2022/05/30 06:39:39;;;;;;;5.20;4.70;;;12.80;99.90;;;;;;5014496;28;20183;-49
2022/05/30 06:42:09;;;;;;;4.80;4.40;;;13.10;99.90;;;;;;5013040;28;20608;-50
2022/05/30 06:44:36;;;;;;;4.60;4.20;;;13.40;99.90;;;;;;5014003;28;20153;-51
2022/05/30 06:47:02;;;;;;;4.87;4.47;;;13.60;99.90;;;;;;5014111;28;20196;-51
2022/05/30 06:49:28;;;;;;;5.00;4.50;;;13.80;99.90;;;;;;5014056;28;20243;-48
2022/05/30 06:51:53;;;;;;;5.57;4.37;;;14.00;99.90;;;;;;5013863;28;20275;-52
2022/05/30 06:54:20;;;;;;;4.63;4.20;;;14.00;99.90;;;;;;5013846;28;20203;-52
2022/05/30 06:59:31;;;;;;;4.70;4.23;;;14.00;99.90;;;;;;5013950;28;20554;-51
2022/05/30 07:01:59;;;;;;;4.50;4.10;;;13.90;99.90;;;;;;5013819;28;20203;-51
2022/05/30 07:04:25;;;;;;;4.70;4.30;;;13.90;99.90;;;;;;5012218;28;20264;-49
2022/05/30 07:06:50;;;;;;;4.73;4.33;;;13.90;99.90;;;;;;5013967;28;20680;-50
2022/05/30 07:09:16;;;;;;;4.40;4.10;;;14.10;99.90;;;;;;5012436;28;20518;-48
2022/05/30 07:11:41;;;;;;;5.43;4.87;;;14.20;99.90;;;;;;5013424;28;20222;-50
2022/05/30 07:14:12;;;;;;;6.20;5.20;;;14.10;99.90;;;;;;5013442;28;20169;-51
2022/05/30 07:16:38;;;;;;;5.93;5.43;;;14.00;99.90;;;;;;5013685;28;20238;-49
2022/05/30 07:19:05;;;;;;;6.63;5.77;;;13.90;99.90;;;;;;5013523;28;20671;-47
2022/05/30 07:21:30;;;;;;;6.50;5.80;;;13.90;99.90;;;;;;5013370;28;20665;-50
2022/05/30 07:23:56;;;;;;;6.00;4.77;;;13.70;99.90;;;;;;5013228;28;20187;-49
2022/05/30 07:26:22;;;;;;;5.97;4.93;;;13.60;99.90;;;;;;5013327;28;20275;-49
2022/05/30 07:28:48;;;;;;;5.43;4.93;;;13.50;99.90;;;;;;5013297;28;20170;-49
2022/05/30 07:31:16;;;;;;;5.50;5.00;;;13.60;99.90;;;;;;5013316;28;20806;-47
2022/05/30 07:33:45;;;;;;;4.60;4.20;;;13.70;99.90;;;;;;5013096;28;20175;-49
2022/05/30 07:36:14;;;;;;;6.57;4.90;;;13.80;99.90;;;;;;5013206;28;20647;-53
2022/05/30 07:38:40;;;;;;;5.10;4.60;;;13.90;99.90;;;;;;5013187;28;20215;-49
2022/05/30 07:41:06;;;;;;;5.63;5.03;;;14.00;99.90;;;;;;5013145;28;20205;-49
2022/05/30 07:43:32;;;;;;;6.80;6.10;;;14.00;99.90;;;;;;5012931;28;20637;-50
2022/05/30 07:46:02;;;;;;;5.27;4.77;;;13.70;99.90;;;;;;5012907;28;20268;-50
2022/05/30 07:48:28;;;;;;;5.40;4.90;;;13.70;99.90;;;;;;5012939;28;20171;-49
2022/05/30 07:50:58;;;;;;;5.33;4.77;;;13.80;99.90;;;;;;5011597;28;20287;-55
2022/05/30 07:53:25;;;;;;;5.13;4.43;;;13.90;99.90;;;;;;5012633;28;20313;-50
2022/05/30 07:55:50;;;;;;;4.87;4.33;;;13.90;99.90;;;;;;5012885;28;20177;-54
2022/05/30 07:58:16;;;;;;;3.70;3.33;;;13.90;99.90;;;;;;5012835;28;20263;-50
2022/05/30 08:00:42;;;;;;;3.63;3.33;;;13.90;99.90;;;;;;5012769;28;20202;-50
2022/05/30 08:03:11;;;;;;;5.37;4.77;;;14.00;99.90;;;;;;5011939;28;20548;-48
2022/05/30 08:05:39;;;;;;;5.10;4.70;;;14.20;99.90;;;;;;5010592;28;20189;-56
2022/05/30 08:08:06;;;;;;;4.77;4.33;;;14.30;99.90;;;;;;5007830;28;20253;-53
2022/05/30 08:10:31;;;;;;;4.50;4.10;;;14.30;99.90;;;;;;5020886;28;20537;-50
2022/05/30 08:12:57;;;;;;;3.90;3.60;;;14.40;99.90;;;;;;5012535;28;20191;-53
2022/05/30 08:15:23;;;;;;;5.20;3.83;;;14.30;99.90;;;;;;5012103;28;20161;-55
2022/05/30 08:17:52;;;;;;;4.20;3.80;;;14.10;99.90;;;;;;5012614;28;20240;-49
2022/05/30 08:20:18;;;;;;;3.53;3.23;;;14.00;99.90;;;;;;5012573;28;20178;-53
2022/05/30 08:22:44;;;;;;;3.27;2.97;;;14.00;99.90;;;;;;5012364;28;20275;-52
2022/05/30 08:25:14;;;;;;;3.00;2.80;;;14.30;99.90;;;;;;5012170;28;20530;-50
2022/05/30 08:27:41;;;;;;;3.43;3.13;;;14.30;99.90;;;;;;5012354;28;20212;-53
2022/05/30 08:30:08;;;;;;;3.30;3.00;;;14.40;99.90;;;;;;5012285;28;20172;-52
2022/05/30 08:32:36;;;;;;;3.63;3.33;;;14.60;99.90;;;;;;5012457;28;20188;-49
2022/05/30 08:35:04;;;;;;;3.20;2.90;;;14.90;99.90;;;;;;5012048;28;20642;-50
2022/05/30 08:37:32;;;;;;;3.20;2.90;;;15.10;99.90;;;;;;5012207;28;20642;-52
2022/05/30 08:42:51;;;;;;;3.37;3.07;;;15.40;99.90;;;;;;5003194;28;20187;-49
2022/05/30 08:45:19;;;;;;;3.90;2.97;;;15.40;99.90;;;;;;5001857;28;20638;-50
2022/05/30 08:47:49;;;;;;;3.00;2.80;;;15.50;99.90;;;;;;5008929;28;20711;-51
2022/05/30 08:50:39;;;;;;;2.77;2.53;;;15.70;99.90;;;;;;5012332;28;20180;-49
2022/05/30 08:53:44;;;;;;;3.77;3.00;;;15.90;99.90;;;;;;5012173;28;20171;-54
2022/05/30 08:56:22;;;;;;;2.73;2.53;;;15.90;99.90;;;;;;5012148;28;20523;-50
2022/05/30 08:59:19;;;;;;;2.93;2.70;;;15.70;99.90;;;;;;5000349;28;20232;-48
2022/05/30 09:01:50;;;;;;;3.13;2.90;;;15.60;99.90;;;;;;4992443;28;20284;-51
2022/05/30 09:04:33;;;;;;;3.73;2.60;;;15.50;99.90;;;;;;4992241;28;20523;-52
2022/05/30 09:07:10;;;;;;;3.37;2.67;;;15.30;99.90;;;;;;4992528;28;20216;-50
2022/05/30 09:09:54;;;;;;;2.33;2.13;;;15.30;99.90;;;;;;4992228;28;20160;-49
2022/05/30 09:12:47;;;;;;;2.43;1.90;;;15.30;99.90;;;;;;4992052;28;20201;-52
2022/05/30 09:15:24;;;;;;;2.20;1.70;;;15.60;99.90;;;;;;4991925;28;20181;-49
2022/05/30 09:17:54;;;;;;;1.77;1.67;;;15.90;99.90;;;;;;4991960;28;20205;-49
2022/05/30 09:20:23;;;;;;;1.60;1.50;;;16.20;99.90;;;;;;4992085;28;20581;-52
2022/05/30 09:22:49;;;;;;;2.27;1.40;;;16.50;99.90;;;;;;4992121;28;20173;-48
2022/05/30 09:28:03;;;;;;;1.80;1.70;;;16.40;99.90;;;;;;4991993;28;20188;-49
2022/05/30 09:30:52;;;;;;;1.90;1.60;;;16.40;99.90;;;;;;4991918;28;20165;-54
2022/05/30 09:33:30;;;;;;;2.13;1.90;;;16.60;99.90;;;;;;4991406;28;20576;-51
2022/05/30 09:36:18;;;;;;;1.60;1.40;;;16.70;99.90;;;;;;4991919;28;20174;-53
2022/05/30 09:38:49;;;;;;;2.53;1.60;;;16.70;99.90;;;;;;4991805;28;20594;-49
2022/05/30 09:41:28;;;;;;;1.80;1.70;;;16.80;99.90;;;;;;4991750;28;20683;-52
2022/05/30 09:44:03;;;;;;;1.63;1.53;;;16.90;99.90;;;;;;4991515;28;20651;-55
2022/05/30 09:46:43;;;;;;;1.10;1.00;;;17.10;99.90;;;;;;5002718;28;20206;-51
2022/05/30 09:49:20;;;;;;;1.30;1.20;;;17.00;99.90;;;;;;5001772;28;20182;-48
2022/05/30 09:51:52;;;;;;;1.57;1.20;;;17.30;99.90;;;;;;4999163;28;20200;-56
2022/05/30 09:54:32;;;;;;;1.83;1.20;;;17.30;99.90;;;;;;4999787;28;20179;-53
2022/05/30 09:57:06;;;;;;;1.30;1.00;;;17.20;99.70;;;;;;5000257;28;20206;-52
2022/05/30 09:59:41;;;;;;;1.83;1.17;;;17.20;99.60;;;;;;4999503;28;20639;-50
2022/05/30 10:02:23;;;;;;;1.63;1.20;;;17.10;99.90;;;;;;4999359;28;20196;-48
2022/05/30 10:05:01;;;;;;;1.53;1.30;;;17.10;99.90;;;;;;4998686;28;20187;-49
2022/05/30 10:07:28;;;;;;;1.30;1.20;;;17.30;99.90;;;;;;4999015;28;20200;-50
2022/05/30 10:10:22;;;;;;;0.80;0.80;;;17.70;99.90;;;;;;5000572;28;20180;-52
2022/05/30 10:12:57;;;;;;;0.93;0.80;;;17.90;99.90;;;;;;5001278;28;20723;-53
2022/05/30 10:15:36;;;;;;;1.13;0.90;;;18.00;99.80;;;;;;5000096;28;20177;-55
2022/05/30 10:18:13;;;;;;;1.40;1.00;;;18.10;98.40;;;;;;5000464;28;20225;-49
2022/05/30 10:20:48;;;;;;;1.17;0.90;;;18.40;99.90;;;;;;5000014;28;20215;-53
2022/05/30 10:29:33;;;;;;;0.90;0.90;;;18.60;99.30;;;;;;5005444;28;20263;-51
2022/05/30 10:32:30;;;;;;;1.10;1.00;;;18.70;98.30;;;;;;5003387;28;20221;-52
2022/05/30 10:34:56;;;;;;;0.80;0.80;;;18.70;97.90;;;;;;5005205;28;20179;-55
2022/05/30 10:37:29;;;;;;;1.77;0.80;;;18.60;96.40;;;;;;5004014;28;20185;-52
2022/05/30 10:40:16;;;;;;;0.70;0.70;;;18.70;98.10;;;;;;5003531;28;20241;-54
2022/05/30 10:43:26;;;;;;;1.53;0.90;;;18.70;97.80;;;;;;5009542;28;20732;-53
2022/05/30 10:46:23;;;;;;;1.03;0.80;;;18.80;97.40;;;;;;4937593;29;20262;-50
2022/05/30 10:48:57;;;;;;;1.00;0.90;;;18.90;96.00;;;;;;4953956;29;20199;-54
2022/05/30 10:51:28;;;;;;;1.13;1.03;;;18.90;96.00;;;;;;4953676;29;20206;-48
2022/05/30 10:54:03;;;;;;;1.10;1.00;;;19.10;97.30;;;;;;4953604;29;20186;-53
2022/05/30 10:56:32;;;;;;;1.60;1.00;;;19.50;97.00;;;;;;4953330;28;20244;-51
2022/05/30 10:59:16;;;;;;;1.23;1.10;;;19.40;95.30;;;;;;4935345;29;20198;-52
2022/05/30 11:01:42;;;;;;;0.83;0.83;;;19.40;96.20;;;;;;4934508;29;20562;-53
2022/05/30 11:04:21;;;;;;;1.57;1.00;;;19.30;95.90;;;;;;4934140;29;20219;-53
2022/05/30 11:06:50;;;;;;;1.03;0.93;;;19.40;95.70;;;;;;4934382;29;20207;-48
2022/05/30 11:09:42;;;;;;;1.63;1.00;;;19.50;93.60;;;;;;4936564;29;20202;-54
2022/05/30 11:12:19;;;;;;;1.33;1.10;;;19.40;92.70;;;;;;4943867;29;20240;-52
2022/05/30 11:15:06;;;;;;;0.90;0.90;;;19.10;93.30;;;;;;4934020;29;20179;-49
2022/05/30 11:17:43;;;;;;;1.70;1.20;;;18.80;93.90;;;;;;4988969;28;20885;-48
2022/05/30 11:20:21;;;;;;;0.70;0.70;;;18.70;93.80;;;;;;4994338;28;20187;-51
2022/05/30 11:22:55;;;;;;;1.03;0.93;;;18.80;92.90;;;;;;4994363;28;20193;-53
2022/05/30 11:25:47;;;;;;;1.13;1.03;;;19.10;94.10;;;;;;5008668;28;20239;-49
2022/05/30 11:28:28;;;;;;;0.93;0.93;;;19.40;94.40;;;;;;5013785;28;20256;-52
2022/05/30 11:31:19;;;;;;;0.80;0.70;;;19.50;91.70;;;;;;5013620;28;20184;-54
2022/05/30 11:33:53;;;;;;;1.07;0.80;;;19.50;93.20;;;;;;5009740;28;20181;-48
2022/05/30 11:36:53;;;;;;;1.30;1.00;;;19.70;93.20;;;;;;5005403;28;20259;-49
2022/05/30 11:39:37;;;;;;;1.10;0.90;;;19.90;94.30;;;;;;5007426;28;20170;-51
2022/05/30 11:42:12;;;;;;;1.10;0.87;;;19.90;94.00;;;;;;5010599;28;20197;-52
2022/05/30 11:44:45;;;;;;;1.33;1.10;;;19.90;92.90;;;;;;5028021;28;20173;-51
2022/05/30 11:47:35;;;;;;;1.87;1.00;;;19.90;93.20;;;;;;5016006;28;20215;-53
2022/05/30 11:50:28;;;;;;;0.87;0.80;;;20.00;93.10;;;;;;5078697;22;20254;-57
2022/05/30 11:53:18;;;;;;;1.60;1.10;;;20.20;94.20;;;;;;5028261;28;20183;-57
2022/05/30 11:55:56;;;;;;;2.05;1.02;;;20.20;93.80;;;;;;5024732;28;20176;-58
2022/05/30 11:58:56;;;;;;;1.00;0.85;;;20.20;94.00;;;;;;5031088;28;20537;-56
2022/05/30 12:01:24;;;;;;;1.50;0.88;;;20.40;95.60;;;;;;5032353;28;20561;-55
2022/05/30 12:04:14;;;;;;;1.00;1.00;;;20.60;91.90;;;;;;5032337;28;20176;-58
2022/05/30 12:07:10;;;;;;;0.95;0.93;;;20.50;91.40;;;;;;5024551;28;20200;-58
2022/05/30 12:09:52;;;;;;;0.82;0.75;;;20.50;91.00;;;;;;5024959;28;20224;-53
2022/05/30 12:12:23;;;;;;;0.95;0.85;;;20.50;91.50;;;;;;5032564;28;20161;-49
2022/05/30 12:14:59;;;;;;;0.70;0.70;;;20.40;90.70;;;;;;5032048;28;20574;-54
2022/05/30 12:24:03;;;;;;;1.80;1.00;;;20.80;89.00;;;;;;4944373;28;20204;-49
2022/05/30 12:26:53;;;;;;;0.80;0.80;;;21.00;89.30;;;;;;4937285;28;20581;-53
2022/05/30 12:29:39;;;;;;;1.05;0.95;;;20.60;87.20;;;;;;4943275;29;20245;-54
2022/05/30 12:32:16;;;;;;;0.77;0.77;;;20.80;92.60;;;;;;4940686;29;20188;-55
2022/05/30 12:38:07;;;;;;;1.08;0.98;;;20.90;91.80;;;;;;4943203;29;20181;-54
2022/05/30 12:40:59;;;;;;;1.20;0.95;;;20.70;91.30;;;;;;4943061;29;20771;-52
2022/05/30 12:43:27;;;;;;;0.90;0.90;;;20.70;88.20;;;;;;4942923;29;20243;-60
2022/05/30 12:45:56;;;;;;;1.15;1.05;;;20.70;89.50;;;;;;4941233;29;20198;-55
2022/05/30 12:48:45;;;;;;;0.98;0.85;;;20.80;90.40;;;;;;4942178;29;20226;-53
2022/05/30 12:51:26;;;;;;;0.95;0.85;;;20.70;88.60;;;;;;4943022;29;20221;-55
2022/05/30 12:53:54;;;;;;;1.38;0.85;;;21.00;91.10;;;;;;4940990;29;20171;-53
2022/05/30 12:56:39;;;;;;;1.25;1.00;;;21.20;92.40;;;;;;4947220;28;20716;-55
2022/05/30 12:59:21;;;;;;;0.90;0.70;;;21.10;90.20;;;;;;5000222;28;20228;-54
2022/05/30 13:01:47;;;;;;;1.20;0.80;;;21.30;91.90;;;;;;4986879;28;20207;-52
2022/05/30 13:04:15;;;;;;;0.63;0.63;;;21.30;87.60;;;;;;5001235;28;20190;-48
2022/05/30 13:07:04;;;;;;;0.70;0.70;;;21.20;83.90;;;;;;5002444;28;20198;-50
2022/05/30 13:09:37;;;;;;;1.75;0.95;;;21.10;88.40;;;;;;4984253;28;20269;-53
2022/05/30 13:12:12;;;;;;;1.17;0.90;;;20.90;86.60;;;;;;5002789;28;20541;-51
2022/05/30 13:14:40;;;;;;;0.82;0.82;;;20.70;91.50;;;;;;4984352;28;20208;-52
2022/05/30 13:17:23;;;;;;;0.52;0.52;;;20.70;85.30;;;;;;5000322;28;20667;-55
2022/05/30 13:19:58;;;;;;;1.02;0.93;;;20.70;87.30;;;;;;5001060;28;20191;-55
2022/05/30 13:22:45;;;;;;;1.05;0.75;;;20.80;90.40;;;;;;4982558;28;20173;-51
2022/05/30 13:25:18;;;;;;;0.93;0.80;;;19.60;86.40;;;;;;4991420;28;20165;-54
2022/05/30 13:27:46;;;;;;;0.88;0.77;;;20.70;91.20;;;;;;4991810;28;20251;-55
2022/05/30 13:30:25;;;;;;;1.00;0.90;;;20.70;87.90;;;;;;4991717;28;20200;-51
2022/05/30 13:32:51;;;;;;;0.88;0.88;;;20.80;90.50;;;;;;4975721;28;20688;-52
2022/05/30 13:35:18;;;;;;;0.75;0.75;;;20.70;90.40;;;;;;4988212;28;20558;-55
2022/05/30 13:37:48;;;;;;;1.48;0.90;;;20.80;87.60;;;;;;5011148;28;20201;-54
2022/05/30 13:40:18;;;;;;;1.33;0.88;;;20.70;86.10;;;;;;5011667;28;20210;-55